sensor_id;sensor_type;location;lat;lon;timestamp;temperature;humidity
9099;DHT22;4585;51.414;6.776;2022-07-12T00:01:21;13.70;99.90
9099;DHT22;4585;51.414;6.776;2022-07-12T00:03:47;13.60;99.90
9099;DHT22;4585;51.414;6.776;2022-07-12T00:06:12;13.50;99.90
9099;DHT22;4585;51.414;6.776;2022-07-12T00:08:38;13.40;99.90
9099;DHT22;4585;51.414;6.776;2022-07-12T00:11:04;13.50;99.90
9099;DHT22;4585;51.414;6.776;2022-07-12T00:13:30;13.40;99.90
9099;DHT22;4585;51.414;6.776;2022-07-12T00:15:57;13.40;99.90
9099;DHT22;4585;51.414;6.776;2022-07-12T00:18:22;13.30;99.90
9099;DHT22;4585;51.414;6.776;2022-07-12T00:20:49;13.30;99.90
9099;DHT22;4585;51.414;6.776;2022-07-12T00:23:15;13.30;99.90
9099;DHT22;4585;51.414;6.776;2022-07-12T00:25:41;13.30;99.90
9099;DHT22;4585;51.414;6.776;2022-07-12T00:28:08;13.30;99.90
9099;DHT22;4585;51.414;6.776;2022-07-12T00:30:33;13.30;99.90
9099;DHT22;4585;51.414;6.776;2022-07-12T00:32:59;13.30;99.90
9099;DHT22;4585;51.414;6.776;2022-07-12T00:35:25;13.30;99.90
9099;DHT22;4585;51.414;6.776;2022-07-12T00:37:51;13.10;99.90
9099;DHT22;4585;51.414;6.776;2022-07-12T00:40:17;13.00;99.90
9099;DHT22;4585;51.414;6.776;2022-07-12T00:42:43;13.10;99.90
9099;DHT22;4585;51.414;6.776;2022-07-12T00:45:10;13.10;99.90
9099;DHT22;4585;51.414;6.776;2022-07-12T00:47:39;13.00;99.90
9099;DHT22;4585;51.414;6.776;2022-07-12T00:50:21;13.00;99.90
9099;DHT22;4585;51.414;6.776;2022-07-12T00:53:11;13.00;99.90
9099;DHT22;4585;51.414;6.776;2022-07-12T00:55:38;13.00;99.90
9099;DHT22;4585;51.414;6.776;2022-07-12T00:58:03;13.00;99.90
9099;DHT22;4585;51.414;6.776;2022-07-12T01:00:29;12.90;99.90
9099;DHT22;4585;51.414;6.776;2022-07-12T01:02:57;13.00;99.90
9099;DHT22;4585;51.414;6.776;2022-07-12T01:05:23;12.90;99.90
9099;DHT22;4585;51.414;6.776;2022-07-12T01:07:49;12.90;99.90
9099;DHT22;4585;51.414;6.776;2022-07-12T01:10:15;12.90;99.90
9099;DHT22;4585;51.414;6.776;2022-07-12T01:12:41;12.90;99.90
9099;DHT22;4585;51.414;6.776;2022-07-12T01:15:08;12.80;99.90
9099;DHT22;4585;51.414;6.776;2022-07-12T01:17:34;12.80;99.90
9099;DHT22;4585;51.414;6.776;2022-07-12T01:20:00;12.80;99.90
9099;DHT22;4585;51.414;6.776;2022-07-12T01:22:36;12.80;99.90
9099;DHT22;4585;51.414;6.776;2022-07-12T01:25:04;12.80;99.90
9099;DHT22;4585;51.414;6.776;2022-07-12T01:27:32;12.80;99.90
9099;DHT22;4585;51.414;6.776;2022-07-12T01:29:57;12.70;99.90
9099;DHT22;4585;51.414;6.776;2022-07-12T01:32:23;12.70;99.90
9099;DHT22;4585;51.414;6.776;2022-07-12T01:34:59;12.60;99.90
9099;DHT22;4585;51.414;6.776;2022-07-12T01:37:28;12.60;99.90
9099;DHT22;4585;51.414;6.776;2022-07-12T01:39:56;12.70;99.90
9099;DHT22;4585;51.414;6.776;2022-07-12T01:42:24;12.60;99.90
9099;DHT22;4585;51.414;6.776;2022-07-12T01:44:52;12.60;99.90
9099;DHT22;4585;51.414;6.776;2022-07-12T01:47:18;12.60;99.90
9099;DHT22;4585;51.414;6.776;2022-07-12T01:49:44;12.60;99.90
9099;DHT22;4585;51.414;6.776;2022-07-12T01:52:11;12.60;99.90
9099;DHT22;4585;51.414;6.776;2022-07-12T01:54:37;12.50;99.90
9099;DHT22;4585;51.414;6.776;2022-07-12T01:57:04;12.50;99.90
9099;DHT22;4585;51.414;6.776;2022-07-12T01:59:30;12.40;99.90
9099;DHT22;4585;51.414;6.776;2022-07-12T02:01:56;12.40;99.90
9099;DHT22;4585;51.414;6.776;2022-07-12T02:04:22;12.30;99.90
9099;DHT22;4585;51.414;6.776;2022-07-12T02:06:48;12.30;99.90
9099;DHT22;4585;51.414;6.776;2022-07-12T02:09:15;12.30;99.90
9099;DHT22;4585;51.414;6.776;2022-07-12T02:11:42;12.40;99.90
9099;DHT22;4585;51.414;6.776;2022-07-12T02:14:08;12.30;99.90
9099;DHT22;4585;51.414;6.776;2022-07-12T02:16:34;12.30;99.90
9099;DHT22;4585;51.414;6.776;2022-07-12T02:19:01;12.30;99.90
9099;DHT22;4585;51.414;6.776;2022-07-12T02:21:27;12.30;99.90
9099;DHT22;4585;51.414;6.776;2022-07-12T02:23:53;12.30;99.90
9099;DHT22;4585;51.414;6.776;2022-07-12T02:26:18;12.30;99.90
9099;DHT22;4585;51.414;6.776;2022-07-12T02:28:44;12.20;99.90
9099;DHT22;4585;51.414;6.776;2022-07-12T02:31:10;12.20;99.90
9099;DHT22;4585;51.414;6.776;2022-07-12T02:33:36;12.30;99.90
9099;DHT22;4585;51.414;6.776;2022-07-12T02:36:02;12.20;99.90
9099;DHT22;4585;51.414;6.776;2022-07-12T02:38:28;12.20;99.90
9099;DHT22;4585;51.414;6.776;2022-07-12T02:40:55;12.20;99.90
9099;DHT22;4585;51.414;6.776;2022-07-12T02:43:25;12.10;99.90
9099;DHT22;4585;51.414;6.776;2022-07-12T02:45:55;12.10;99.90
9099;DHT22;4585;51.414;6.776;2022-07-12T02:48:25;12.20;99.90
9099;DHT22;4585;51.414;6.776;2022-07-12T02:50:50;12.10;99.90
9099;DHT22;4585;51.414;6.776;2022-07-12T02:53:16;12.20;99.90
9099;DHT22;4585;51.414;6.776;2022-07-12T02:55:41;12.20;99.90
9099;DHT22;4585;51.414;6.776;2022-07-12T02:58:07;12.10;99.90
9099;DHT22;4585;51.414;6.776;2022-07-12T03:00:34;12.10;99.90
9099;DHT22;4585;51.414;6.776;2022-07-12T03:03:03;12.10;99.90
9099;DHT22;4585;51.414;6.776;2022-07-12T03:05:29;12.00;99.90
9099;DHT22;4585;51.414;6.776;2022-07-12T03:07:55;11.90;99.90
9099;DHT22;4585;51.414;6.776;2022-07-12T03:10:21;12.00;99.90
9099;DHT22;4585;51.414;6.776;2022-07-12T03:12:46;12.00;99.90
9099;DHT22;4585;51.414;6.776;2022-07-12T03:15:12;11.90;99.90
9099;DHT22;4585;51.414;6.776;2022-07-12T03:17:38;11.90;99.90
9099;DHT22;4585;51.414;6.776;2022-07-12T03:20:04;11.90;99.90
9099;DHT22;4585;51.414;6.776;2022-07-12T03:22:34;11.90;99.90
9099;DHT22;4585;51.414;6.776;2022-07-12T03:25:00;11.90;99.90
9099;DHT22;4585;51.414;6.776;2022-07-12T03:27:25;11.90;99.90
9099;DHT22;4585;51.414;6.776;2022-07-12T03:29:51;11.90;99.90
9099;DHT22;4585;51.414;6.776;2022-07-12T03:32:17;11.90;99.90
9099;DHT22;4585;51.414;6.776;2022-07-12T03:34:42;11.80;99.90
9099;DHT22;4585;51.414;6.776;2022-07-12T03:37:08;11.80;99.90
9099;DHT22;4585;51.414;6.776;2022-07-12T03:39:34;11.90;99.90
9099;DHT22;4585;51.414;6.776;2022-07-12T03:41:59;11.90;99.90
9099;DHT22;4585;51.414;6.776;2022-07-12T03:44:25;11.90;99.90
9099;DHT22;4585;51.414;6.776;2022-07-12T03:46:50;11.90;99.90
9099;DHT22;4585;51.414;6.776;2022-07-12T03:49:16;11.80;99.90
9099;DHT22;4585;51.414;6.776;2022-07-12T03:51:42;11.80;99.90
9099;DHT22;4585;51.414;6.776;2022-07-12T03:54:07;11.80;99.90
9099;DHT22;4585;51.414;6.776;2022-07-12T03:56:36;11.80;99.90
9099;DHT22;4585;51.414;6.776;2022-07-12T03:59:21;11.80;99.90
9099;DHT22;4585;51.414;6.776;2022-07-12T04:01:47;11.80;99.90
9099;DHT22;4585;51.414;6.776;2022-07-12T04:04:13;11.90;99.90
9099;DHT22;4585;51.414;6.776;2022-07-12T04:06:39;11.80;99.90
9099;DHT22;4585;51.414;6.776;2022-07-12T04:09:06;11.80;99.90
9099;DHT22;4585;51.414;6.776;2022-07-12T04:11:32;11.80;99.90
9099;DHT22;4585;51.414;6.776;2022-07-12T04:13:58;11.90;99.90
9099;DHT22;4585;51.414;6.776;2022-07-12T04:16:24;11.90;99.90
9099;DHT22;4585;51.414;6.776;2022-07-12T04:18:50;11.90;99.90
9099;DHT22;4585;51.414;6.776;2022-07-12T04:21:16;11.90;99.90
9099;DHT22;4585;51.414;6.776;2022-07-12T04:23:41;11.90;99.90
9099;DHT22;4585;51.414;6.776;2022-07-12T04:26:07;11.90;99.90
9099;DHT22;4585;51.414;6.776;2022-07-12T04:28:34;11.90;99.90
9099;DHT22;4585;51.414;6.776;2022-07-12T04:31:00;12.00;99.90
9099;DHT22;4585;51.414;6.776;2022-07-12T04:33:26;12.10;99.90
9099;DHT22;4585;51.414;6.776;2022-07-12T04:35:51;12.00;99.90
9099;DHT22;4585;51.414;6.776;2022-07-12T04:38:17;12.00;99.90
9099;DHT22;4585;51.414;6.776;2022-07-12T04:40:43;12.10;99.90
9099;DHT22;4585;51.414;6.776;2022-07-12T04:43:08;12.10;99.90
9099;DHT22;4585;51.414;6.776;2022-07-12T04:45:34;12.10;99.90
9099;DHT22;4585;51.414;6.776;2022-07-12T04:48:00;12.20;99.90
9099;DHT22;4585;51.414;6.776;2022-07-12T04:50:26;12.30;99.90
9099;DHT22;4585;51.414;6.776;2022-07-12T04:52:51;12.40;99.90
9099;DHT22;4585;51.414;6.776;2022-07-12T04:55:17;12.40;99.90
9099;DHT22;4585;51.414;6.776;2022-07-12T04:57:43;12.50;99.90
9099;DHT22;4585;51.414;6.776;2022-07-12T05:00:09;12.50;99.90
9099;DHT22;4585;51.414;6.776;2022-07-12T05:02:35;12.70;99.90
9099;DHT22;4585;51.414;6.776;2022-07-12T05:05:00;12.60;99.90
9099;DHT22;4585;51.414;6.776;2022-07-12T05:07:26;12.70;99.90
9099;DHT22;4585;51.414;6.776;2022-07-12T05:09:52;12.90;99.90
9099;DHT22;4585;51.414;6.776;2022-07-12T05:12:18;12.90;99.90
9099;DHT22;4585;51.414;6.776;2022-07-12T05:14:44;13.00;99.90
9099;DHT22;4585;51.414;6.776;2022-07-12T05:17:10;13.10;99.90
9099;DHT22;4585;51.414;6.776;2022-07-12T05:19:39;13.30;99.90
9099;DHT22;4585;51.414;6.776;2022-07-12T05:22:05;13.50;99.90
9099;DHT22;4585;51.414;6.776;2022-07-12T05:24:31;13.70;99.90
9099;DHT22;4585;51.414;6.776;2022-07-12T05:26:57;13.90;99.90
9099;DHT22;4585;51.414;6.776;2022-07-12T05:29:22;14.10;99.90
9099;DHT22;4585;51.414;6.776;2022-07-12T05:31:48;14.20;99.90
9099;DHT22;4585;51.414;6.776;2022-07-12T05:34:14;14.30;99.90
9099;DHT22;4585;51.414;6.776;2022-07-12T05:36:40;14.30;99.90
9099;DHT22;4585;51.414;6.776;2022-07-12T05:39:06;14.40;99.90
9099;DHT22;4585;51.414;6.776;2022-07-12T05:41:32;14.50;99.90
9099;DHT22;4585;51.414;6.776;2022-07-12T05:43:58;14.70;99.90
9099;DHT22;4585;51.414;6.776;2022-07-12T05:46:23;14.90;99.90
9099;DHT22;4585;51.414;6.776;2022-07-12T05:48:50;14.90;99.90
9099;DHT22;4585;51.414;6.776;2022-07-12T05:51:15;15.10;99.90
9099;DHT22;4585;51.414;6.776;2022-07-12T05:54:00;15.20;99.90
9099;DHT22;4585;51.414;6.776;2022-07-12T05:56:25;15.40;99.90
9099;DHT22;4585;51.414;6.776;2022-07-12T05:58:51;15.50;99.90
9099;DHT22;4585;51.414;6.776;2022-07-12T06:01:18;15.70;99.90
9099;DHT22;4585;51.414;6.776;2022-07-12T06:03:44;15.70;99.90
9099;DHT22;4585;51.414;6.776;2022-07-12T06:06:09;15.90;99.90
9099;DHT22;4585;51.414;6.776;2022-07-12T06:08:35;15.90;99.90
9099;DHT22;4585;51.414;6.776;2022-07-12T06:11:01;16.00;99.90
9099;DHT22;4585;51.414;6.776;2022-07-12T06:13:27;16.10;99.90
9099;DHT22;4585;51.414;6.776;2022-07-12T06:15:53;16.20;99.90
9099;DHT22;4585;51.414;6.776;2022-07-12T06:18:19;16.30;99.90
9099;DHT22;4585;51.414;6.776;2022-07-12T06:20:44;16.50;99.90
9099;DHT22;4585;51.414;6.776;2022-07-12T06:23:10;16.60;99.90
9099;DHT22;4585;51.414;6.776;2022-07-12T06:25:36;16.80;99.90
9099;DHT22;4585;51.414;6.776;2022-07-12T06:28:02;16.90;99.90
9099;DHT22;4585;51.414;6.776;2022-07-12T06:30:27;17.00;99.90
9099;DHT22;4585;51.414;6.776;2022-07-12T06:32:53;17.10;99.90
9099;DHT22;4585;51.414;6.776;2022-07-12T06:35:19;17.30;99.90
9099;DHT22;4585;51.414;6.776;2022-07-12T06:37:44;17.50;99.90
9099;DHT22;4585;51.414;6.776;2022-07-12T06:40:11;17.60;99.90
9099;DHT22;4585;51.414;6.776;2022-07-12T06:42:37;17.80;99.90
9099;DHT22;4585;51.414;6.776;2022-07-12T06:45:03;18.10;99.90
9099;DHT22;4585;51.414;6.776;2022-07-12T06:47:29;18.20;99.90
9099;DHT22;4585;51.414;6.776;2022-07-12T06:49:55;18.40;99.90
9099;DHT22;4585;51.414;6.776;2022-07-12T06:52:22;18.60;99.90
9099;DHT22;4585;51.414;6.776;2022-07-12T06:54:47;18.80;99.90
9099;DHT22;4585;51.414;6.776;2022-07-12T06:57:13;19.10;99.90
9099;DHT22;4585;51.414;6.776;2022-07-12T06:59:39;19.20;99.90
9099;DHT22;4585;51.414;6.776;2022-07-12T07:02:04;19.50;99.90
9099;DHT22;4585;51.414;6.776;2022-07-12T07:04:30;19.80;99.90
9099;DHT22;4585;51.414;6.776;2022-07-12T07:06:56;20.10;99.90
9099;DHT22;4585;51.414;6.776;2022-07-12T07:09:22;20.30;99.90
9099;DHT22;4585;51.414;6.776;2022-07-12T07:11:48;20.40;99.90
9099;DHT22;4585;51.414;6.776;2022-07-12T07:14:13;20.40;99.90
9099;DHT22;4585;51.414;6.776;2022-07-12T07:16:39;20.60;1.00
9099;DHT22;4585;51.414;6.776;2022-07-12T07:19:05;20.60;1.00
9099;DHT22;4585;51.414;6.776;2022-07-12T07:21:33;20.80;99.90
9099;DHT22;4585;51.414;6.776;2022-07-12T07:23:59;21.00;1.00
9099;DHT22;4585;51.414;6.776;2022-07-12T07:26:25;21.30;99.90
9099;DHT22;4585;51.414;6.776;2022-07-12T07:28:50;21.50;1.00
9099;DHT22;4585;51.414;6.776;2022-07-12T07:31:38;21.80;1.00
9099;DHT22;4585;51.414;6.776;2022-07-12T07:34:04;21.80;99.90
9099;DHT22;4585;51.414;6.776;2022-07-12T07:36:30;22.00;1.00
9099;DHT22;4585;51.414;6.776;2022-07-12T07:38:57;22.00;1.00
9099;DHT22;4585;51.414;6.776;2022-07-12T07:41:23;22.10;50.20
9099;DHT22;4585;51.414;6.776;2022-07-12T07:43:49;22.20;1.00
9099;DHT22;4585;51.414;6.776;2022-07-12T07:46:15;22.20;1.00
9099;DHT22;4585;51.414;6.776;2022-07-12T07:48:40;22.20;40.50
9099;DHT22;4585;51.414;6.776;2022-07-12T07:51:06;22.40;1.00
9099;DHT22;4585;51.414;6.776;2022-07-12T07:53:32;22.40;58.30
9099;DHT22;4585;51.414;6.776;2022-07-12T07:55:58;22.40;1.00
9099;DHT22;4585;51.414;6.776;2022-07-12T07:58:24;22.40;40.40
9099;DHT22;4585;51.414;6.776;2022-07-12T08:00:50;22.60;86.40
9099;DHT22;4585;51.414;6.776;2022-07-12T08:03:17;22.70;1.00
9099;DHT22;4585;51.414;6.776;2022-07-12T08:05:43;22.80;1.00
9099;DHT22;4585;51.414;6.776;2022-07-12T08:08:09;22.90;1.00
9099;DHT22;4585;51.414;6.776;2022-07-12T08:10:35;22.90;99.90
9099;DHT22;4585;51.414;6.776;2022-07-12T08:13:01;23.00;99.90
9099;DHT22;4585;51.414;6.776;2022-07-12T08:15:27;23.20;1.00
9099;DHT22;4585;51.414;6.776;2022-07-12T08:17:52;23.30;99.90
9099;DHT22;4585;51.414;6.776;2022-07-12T08:20:18;23.30;24.90
9099;DHT22;4585;51.414;6.776;2022-07-12T08:22:45;23.20;99.90
9099;DHT22;4585;51.414;6.776;2022-07-12T08:25:12;23.20;1.00
9099;DHT22;4585;51.414;6.776;2022-07-12T08:27:38;23.30;99.90
9099;DHT22;4585;51.414;6.776;2022-07-12T08:30:04;23.40;99.90
9099;DHT22;4585;51.414;6.776;2022-07-12T08:32:30;23.40;99.90
9099;DHT22;4585;51.414;6.776;2022-07-12T08:34:55;23.50;99.90
9099;DHT22;4585;51.414;6.776;2022-07-12T08:37:21;23.60;99.90
9099;DHT22;4585;51.414;6.776;2022-07-12T08:39:47;23.80;99.90
9099;DHT22;4585;51.414;6.776;2022-07-12T08:42:15;24.00;99.90
9099;DHT22;4585;51.414;6.776;2022-07-12T08:44:42;24.10;1.00
9099;DHT22;4585;51.414;6.776;2022-07-12T08:47:08;24.00;1.00
9099;DHT22;4585;51.414;6.776;2022-07-12T08:49:35;24.00;99.90
9099;DHT22;4585;51.414;6.776;2022-07-12T08:52:24;24.10;1.00
9099;DHT22;4585;51.414;6.776;2022-07-12T08:54:51;24.20;99.90
9099;DHT22;4585;51.414;6.776;2022-07-12T08:57:35;24.30;1.00
9099;DHT22;4585;51.414;6.776;2022-07-12T09:00:01;24.40;80.60
9099;DHT22;4585;51.414;6.776;2022-07-12T09:02:28;24.70;1.00
9099;DHT22;4585;51.414;6.776;2022-07-12T09:05:06;24.80;1.00
9099;DHT22;4585;51.414;6.776;2022-07-12T09:07:35;24.90;1.00
9099;DHT22;4585;51.414;6.776;2022-07-12T09:10:05;24.90;1.00
9099;DHT22;4585;51.414;6.776;2022-07-12T09:12:33;24.90;1.00
9099;DHT22;4585;51.414;6.776;2022-07-12T09:17:56;25.00;1.00
9099;DHT22;4585;51.414;6.776;2022-07-12T09:20:24;25.10;1.00
9099;DHT22;4585;51.414;6.776;2022-07-12T09:22:59;25.20;1.00
9099;DHT22;4585;51.414;6.776;2022-07-12T09:25:25;25.40;1.00
9099;DHT22;4585;51.414;6.776;2022-07-12T09:28:13;25.50;1.00
9099;DHT22;4585;51.414;6.776;2022-07-12T09:30:48;25.40;1.00
9099;DHT22;4585;51.414;6.776;2022-07-12T09:33:18;25.50;1.00
9099;DHT22;4585;51.414;6.776;2022-07-12T09:36:03;25.50;1.00
9099;DHT22;4585;51.414;6.776;2022-07-12T09:38:36;25.50;1.00
9099;DHT22;4585;51.414;6.776;2022-07-12T09:41:03;25.50;1.00
9099;DHT22;4585;51.414;6.776;2022-07-12T09:43:30;25.50;1.00
9099;DHT22;4585;51.414;6.776;2022-07-12T09:45:56;25.30;1.00
9099;DHT22;4585;51.414;6.776;2022-07-12T09:48:23;25.40;1.00
9099;DHT22;4585;51.414;6.776;2022-07-12T09:50:51;25.50;1.00
9099;DHT22;4585;51.414;6.776;2022-07-12T09:53:22;25.60;1.00
9099;DHT22;4585;51.414;6.776;2022-07-12T09:55:52;25.70;1.00
9099;DHT22;4585;51.414;6.776;2022-07-12T09:58:28;25.70;1.00
9099;DHT22;4585;51.414;6.776;2022-07-12T10:00:58;25.80;1.00
9099;DHT22;4585;51.414;6.776;2022-07-12T10:03:28;25.90;1.00
9099;DHT22;4585;51.414;6.776;2022-07-12T10:05:54;25.80;1.00
9099;DHT22;4585;51.414;6.776;2022-07-12T10:08:21;25.90;1.00
9099;DHT22;4585;51.414;6.776;2022-07-12T10:10:48;25.70;1.00
9099;DHT22;4585;51.414;6.776;2022-07-12T10:13:16;25.50;1.00
9099;DHT22;4585;51.414;6.776;2022-07-12T10:15:42;25.60;1.00
9099;DHT22;4585;51.414;6.776;2022-07-12T10:18:20;25.50;1.00
9099;DHT22;4585;51.414;6.776;2022-07-12T10:20:50;25.50;1.00
9099;DHT22;4585;51.414;6.776;2022-07-12T10:23:32;25.40;1.00
9099;DHT22;4585;51.414;6.776;2022-07-12T10:29:02;25.50;1.00
9099;DHT22;4585;51.414;6.776;2022-07-12T10:31:30;25.60;1.00
9099;DHT22;4585;51.414;6.776;2022-07-12T10:34:23;25.70;1.00
9099;DHT22;4585;51.414;6.776;2022-07-12T10:39:26;25.90;1.00
9099;DHT22;4585;51.414;6.776;2022-07-12T10:42:13;26.00;1.00
9099;DHT22;4585;51.414;6.776;2022-07-12T10:44:42;26.10;1.00
9099;DHT22;4585;51.414;6.776;2022-07-12T10:47:10;26.20;1.00
9099;DHT22;4585;51.414;6.776;2022-07-12T10:49:46;26.20;1.00
9099;DHT22;4585;51.414;6.776;2022-07-12T10:52:14;26.40;1.00
9099;DHT22;4585;51.414;6.776;2022-07-12T10:54:42;26.40;1.00
9099;DHT22;4585;51.414;6.776;2022-07-12T10:57:13;26.40;1.00
9099;DHT22;4585;51.414;6.776;2022-07-12T10:59:38;26.40;1.00
9099;DHT22;4585;51.414;6.776;2022-07-12T11:02:04;26.30;1.00
9099;DHT22;4585;51.414;6.776;2022-07-12T11:04:33;26.40;1.00
9099;DHT22;4585;51.414;6.776;2022-07-12T11:07:02;26.50;1.00
9099;DHT22;4585;51.414;6.776;2022-07-12T11:09:28;26.50;1.00
9099;DHT22;4585;51.414;6.776;2022-07-12T11:11:54;26.60;1.00
9099;DHT22;4585;51.414;6.776;2022-07-12T11:14:28;26.80;1.00
9099;DHT22;4585;51.414;6.776;2022-07-12T11:16:57;27.00;1.00
9099;DHT22;4585;51.414;6.776;2022-07-12T11:19:27;27.10;1.00
9099;DHT22;4585;51.414;6.776;2022-07-12T11:21:53;27.20;1.00
9099;DHT22;4585;51.414;6.776;2022-07-12T11:24:29;27.10;1.00
9099;DHT22;4585;51.414;6.776;2022-07-12T11:26:55;27.10;1.00
9099;DHT22;4585;51.414;6.776;2022-07-12T11:29:22;27.10;1.00
9099;DHT22;4585;51.414;6.776;2022-07-12T11:31:48;27.20;1.00
9099;DHT22;4585;51.414;6.776;2022-07-12T11:34:21;27.10;1.00
9099;DHT22;4585;51.414;6.776;2022-07-12T11:36:52;27.10;1.00
9099;DHT22;4585;51.414;6.776;2022-07-12T11:39:30;27.20;1.00
9099;DHT22;4585;51.414;6.776;2022-07-12T11:41:56;27.00;1.00
9099;DHT22;4585;51.414;6.776;2022-07-12T11:44:50;27.20;1.00
9099;DHT22;4585;51.414;6.776;2022-07-12T11:47:22;27.40;1.00
9099;DHT22;4585;51.414;6.776;2022-07-12T11:49:54;27.40;1.00
9099;DHT22;4585;51.414;6.776;2022-07-12T11:52:22;27.50;1.00
9099;DHT22;4585;51.414;6.776;2022-07-12T11:54:50;27.70;1.00
9099;DHT22;4585;51.414;6.776;2022-07-12T11:57:19;27.90;1.00
9099;DHT22;4585;51.414;6.776;2022-07-12T11:59:45;27.90;1.00
9099;DHT22;4585;51.414;6.776;2022-07-12T12:02:13;27.90;1.00
9099;DHT22;4585;51.414;6.776;2022-07-12T12:05:06;27.90;1.00
9099;DHT22;4585;51.414;6.776;2022-07-12T12:07:33;27.70;1.00
9099;DHT22;4585;51.414;6.776;2022-07-12T12:12:50;27.70;1.00
9099;DHT22;4585;51.414;6.776;2022-07-12T12:15:25;27.90;1.00
9099;DHT22;4585;51.414;6.776;2022-07-12T12:17:55;27.90;1.00
9099;DHT22;4585;51.414;6.776;2022-07-12T12:20:23;27.90;1.00
9099;DHT22;4585;51.414;6.776;2022-07-12T12:22:51;28.00;1.00
9099;DHT22;4585;51.414;6.776;2022-07-12T12:25:19;27.90;1.00
9099;DHT22;4585;51.414;6.776;2022-07-12T12:27:56;27.90;1.00
9099;DHT22;4585;51.414;6.776;2022-07-12T12:30:23;27.70;1.00
9099;DHT22;4585;51.414;6.776;2022-07-12T12:35:20;27.80;1.00
9099;DHT22;4585;51.414;6.776;2022-07-12T12:38:00;28.00;1.00
9099;DHT22;4585;51.414;6.776;2022-07-12T12:40:31;28.20;1.00
9099;DHT22;4585;51.414;6.776;2022-07-12T12:43:11;28.30;1.00
9099;DHT22;4585;51.414;6.776;2022-07-12T12:45:54;28.20;1.00
9099;DHT22;4585;51.414;6.776;2022-07-12T12:50:52;28.30;1.00
9099;DHT22;4585;51.414;6.776;2022-07-12T12:53:22;28.20;1.00
9099;DHT22;4585;51.414;6.776;2022-07-12T12:55:53;28.10;1.00
9099;DHT22;4585;51.414;6.776;2022-07-12T12:58:21;28.20;1.00
9099;DHT22;4585;51.414;6.776;2022-07-12T13:00:48;28.40;1.00
9099;DHT22;4585;51.414;6.776;2022-07-12T13:03:16;28.50;1.00
9099;DHT22;4585;51.414;6.776;2022-07-12T13:05:46;28.40;1.00
9099;DHT22;4585;51.414;6.776;2022-07-12T13:08:14;28.40;1.00
9099;DHT22;4585;51.414;6.776;2022-07-12T13:10:41;28.50;1.00
9099;DHT22;4585;51.414;6.776;2022-07-12T13:13:08;28.50;1.00
9099;DHT22;4585;51.414;6.776;2022-07-12T13:15:35;28.50;1.00
9099;DHT22;4585;51.414;6.776;2022-07-12T13:18:01;28.40;99.90
9099;DHT22;4585;51.414;6.776;2022-07-12T13:20:28;28.30;99.90
9099;DHT22;4585;51.414;6.776;2022-07-12T13:22:54;28.40;1.00
9099;DHT22;4585;51.414;6.776;2022-07-12T13:25:21;28.50;1.00
9099;DHT22;4585;51.414;6.776;2022-07-12T13:27:47;28.50;1.00
9099;DHT22;4585;51.414;6.776;2022-07-12T13:30:14;28.50;1.00
9099;DHT22;4585;51.414;6.776;2022-07-12T13:32:41;28.50;1.00
9099;DHT22;4585;51.414;6.776;2022-07-12T13:35:09;28.50;1.00
9099;DHT22;4585;51.414;6.776;2022-07-12T13:37:37;28.50;1.00
9099;DHT22;4585;51.414;6.776;2022-07-12T13:40:04;28.40;1.00
9099;DHT22;4585;51.414;6.776;2022-07-12T13:42:44;28.60;1.00
9099;DHT22;4585;51.414;6.776;2022-07-12T13:45:21;28.70;1.00
9099;DHT22;4585;51.414;6.776;2022-07-12T13:47:48;28.80;1.00
9099;DHT22;4585;51.414;6.776;2022-07-12T13:50:17;28.70;1.00
9099;DHT22;4585;51.414;6.776;2022-07-12T13:52:44;28.70;1.00
9099;DHT22;4585;51.414;6.776;2022-07-12T13:55:12;28.80;1.00
9099;DHT22;4585;51.414;6.776;2022-07-12T13:57:38;28.90;1.00
9099;DHT22;4585;51.414;6.776;2022-07-12T14:00:09;28.80;99.90
9099;DHT22;4585;51.414;6.776;2022-07-12T14:02:37;28.80;99.90
9099;DHT22;4585;51.414;6.776;2022-07-12T14:05:04;28.80;99.90
9099;DHT22;4585;51.414;6.776;2022-07-12T14:07:31;28.80;1.00
9099;DHT22;4585;51.414;6.776;2022-07-12T14:09:57;29.00;1.00
9099;DHT22;4585;51.414;6.776;2022-07-12T14:12:23;28.90;1.00
9099;DHT22;4585;51.414;6.776;2022-07-12T14:14:48;28.90;1.00
9099;DHT22;4585;51.414;6.776;2022-07-12T14:17:33;29.00;1.00
9099;DHT22;4585;51.414;6.776;2022-07-12T14:19:59;29.10;99.90
9099;DHT22;4585;51.414;6.776;2022-07-12T14:22:25;29.10;99.90
9099;DHT22;4585;51.414;6.776;2022-07-12T14:24:52;29.00;99.90
9099;DHT22;4585;51.414;6.776;2022-07-12T14:27:19;28.90;99.90
9099;DHT22;4585;51.414;6.776;2022-07-12T14:29:44;28.70;99.90
9099;DHT22;4585;51.414;6.776;2022-07-12T14:32:10;28.80;99.90
9099;DHT22;4585;51.414;6.776;2022-07-12T14:34:36;28.80;99.90
9099;DHT22;4585;51.414;6.776;2022-07-12T14:37:02;28.70;99.90
9099;DHT22;4585;51.414;6.776;2022-07-12T14:39:28;28.40;99.90
9099;DHT22;4585;51.414;6.776;2022-07-12T14:41:53;28.30;99.90
9099;DHT22;4585;51.414;6.776;2022-07-12T14:44:19;28.10;99.90
9099;DHT22;4585;51.414;6.776;2022-07-12T14:46:45;28.20;99.90
9099;DHT22;4585;51.414;6.776;2022-07-12T14:49:11;28.30;99.90
9099;DHT22;4585;51.414;6.776;2022-07-12T14:51:37;28.40;99.90
9099;DHT22;4585;51.414;6.776;2022-07-12T14:54:03;28.30;99.90
9099;DHT22;4585;51.414;6.776;2022-07-12T14:56:29;28.50;99.90
9099;DHT22;4585;51.414;6.776;2022-07-12T14:58:54;28.60;99.90
9099;DHT22;4585;51.414;6.776;2022-07-12T15:01:20;28.60;99.90
9099;DHT22;4585;51.414;6.776;2022-07-12T15:03:46;28.70;99.90
9099;DHT22;4585;51.414;6.776;2022-07-12T15:06:12;28.70;99.90
9099;DHT22;4585;51.414;6.776;2022-07-12T15:08:37;28.60;99.90
9099;DHT22;4585;51.414;6.776;2022-07-12T15:11:03;28.50;99.90
9099;DHT22;4585;51.414;6.776;2022-07-12T15:13:29;28.50;99.90
9099;DHT22;4585;51.414;6.776;2022-07-12T15:15:56;28.40;99.90
9099;DHT22;4585;51.414;6.776;2022-07-12T15:18:22;28.50;99.90
9099;DHT22;4585;51.414;6.776;2022-07-12T15:20:49;28.60;99.90
9099;DHT22;4585;51.414;6.776;2022-07-12T15:23:15;28.70;99.90
9099;DHT22;4585;51.414;6.776;2022-07-12T15:25:41;28.70;99.90
9099;DHT22;4585;51.414;6.776;2022-07-12T15:28:06;28.70;99.90
9099;DHT22;4585;51.414;6.776;2022-07-12T15:30:32;28.70;99.90
9099;DHT22;4585;51.414;6.776;2022-07-12T15:32:59;28.50;99.90
9099;DHT22;4585;51.414;6.776;2022-07-12T15:35:25;28.50;99.90
9099;DHT22;4585;51.414;6.776;2022-07-12T15:37:51;28.60;99.90
9099;DHT22;4585;51.414;6.776;2022-07-12T15:40:17;28.60;99.90
9099;DHT22;4585;51.414;6.776;2022-07-12T15:42:43;28.50;99.90
9099;DHT22;4585;51.414;6.776;2022-07-12T15:45:10;28.50;99.90
9099;DHT22;4585;51.414;6.776;2022-07-12T15:47:37;28.50;99.90
9099;DHT22;4585;51.414;6.776;2022-07-12T15:50:03;28.40;99.90
9099;DHT22;4585;51.414;6.776;2022-07-12T15:52:29;28.30;99.90
9099;DHT22;4585;51.414;6.776;2022-07-12T15:55:13;28.30;99.90
9099;DHT22;4585;51.414;6.776;2022-07-12T15:57:39;28.30;99.90
9099;DHT22;4585;51.414;6.776;2022-07-12T16:00:06;28.40;99.90
9099;DHT22;4585;51.414;6.776;2022-07-12T16:02:33;28.50;99.90
9099;DHT22;4585;51.414;6.776;2022-07-12T16:04:58;28.60;99.90
9099;DHT22;4585;51.414;6.776;2022-07-12T16:07:24;28.80;99.90
9099;DHT22;4585;51.414;6.776;2022-07-12T16:09:51;29.00;99.90
9099;DHT22;4585;51.414;6.776;2022-07-12T16:12:21;28.80;99.90
9099;DHT22;4585;51.414;6.776;2022-07-12T16:14:47;28.70;99.90
9099;DHT22;4585;51.414;6.776;2022-07-12T16:17:17;28.70;99.90
9099;DHT22;4585;51.414;6.776;2022-07-12T16:19:43;28.50;99.90
9099;DHT22;4585;51.414;6.776;2022-07-12T16:22:10;28.50;99.90
9099;DHT22;4585;51.414;6.776;2022-07-12T16:24:36;28.30;99.90
9099;DHT22;4585;51.414;6.776;2022-07-12T16:27:02;28.20;99.90